Terminal Aerodrome Forecast
Issued by NWS Austin/San Antonio, TX

Home | Current Version | Previous Version | Text Only | Print | Product List | Glossary On
Versions: 1 2 3 4 5 6 7 8 9 10 11 12 13 14 15 16 17 18 19 20 21 22 23
000
FTUS44 KEWX 271700
TAFSAT
TAF
KSAT 271738Z 2718/2824 36015G25KT 6SM -RA BR OVC019
     FM271900 36015G25KT P6SM OVC025
     FM280200 36015KT P6SM OVC035
      TEMPO 2810/2814 -RA
     FM281700 36012KT P6SM BKN100=

USA.gov is the U.S. government's official web portal to all federal, state and local government web resources and services.